Time;durP1;ratioP1;P1;durP2;ratioP2;P2;SDS_P1;SDS_P2;PMS_P1;PMS_P2;Temp;Humidity;BMP_temperature;BMP_pressure;BME280_temperature;BME280_humidity;BME280_pressure;Samples;Min_cycle;Max_cycle;Signal;HPM_P1;HPM_P2
2023/02/16 00:03:01;;;;;;;21.65;16.13;;;;;;;;;;10330890;28;20040;-66
2023/02/16 00:08:00;;;;;;;19.17;14.98;;;;;;;;;;10332881;28;20074;-66
2023/02/16 00:18:17;;;;;;;18.30;14.63;;;;;;;;;;10331650;28;20068;-67
2023/02/16 00:23:15;;;;;;;19.88;14.00;;;;;;;;;;10329190;28;20074;-67
2023/02/16 00:28:16;;;;;;;20.30;13.60;;;;;;;;;;10330124;28;20473;-67
2023/02/16 00:33:15;;;;;;;18.30;14.13;;;;;;;;;;10326694;28;20485;-67
2023/02/16 00:38:13;;;;;;;18.52;13.80;;;;;;;;;;10328692;28;20462;-67
2023/02/16 00:43:19;;;;;;;17.92;13.57;;;;;;;;;;10325797;28;20072;-66
2023/02/16 00:48:19;;;;;;;18.30;15.02;;;;;;;;;;10310605;28;20446;-67
2023/02/16 00:53:17;;;;;;;21.02;15.75;;;;;;;;;;10334902;28;20094;-67
2023/02/16 00:58:21;;;;;;;17.58;13.68;;;;;;;;;;10336946;28;20064;-66
2023/02/16 01:03:23;;;;;;;19.98;14.95;;;;;;;;;;10326302;28;20064;-66
2023/02/16 01:13:36;;;;;;;;;;;;;;;;;;10340059;28;20082;-67
2023/02/16 01:18:36;;;;;;;20.73;15.25;;;;;;;;;;10338407;28;20396;-67
2023/02/16 01:23:34;;;;;;;16.90;13.75;;;;;;;;;;10338187;28;20079;-67
2023/02/16 01:28:34;;;;;;;17.92;13.63;;;;;;;;;;10322091;28;20072;-67
2023/02/16 01:33:32;;;;;;;20.63;15.70;;;;;;;;;;10336973;28;20064;-67
2023/02/16 01:38:32;;;;;;;18.13;14.38;;;;;;;;;;10316003;28;20040;-67
2023/02/16 01:43:35;;;;;;;19.17;15.23;;;;;;;;;;10338447;28;20059;-66
2023/02/16 01:48:34;;;;;;;17.83;13.98;;;;;;;;;;10334348;28;20489;-66
2023/02/16 01:53:36;;;;;;;20.00;15.27;;;;;;;;;;10325131;28;20087;-66
2023/02/16 01:58:38;;;;;;;16.30;13.95;;;;;;;;;;10315552;28;20080;-65
2023/02/16 02:09:01;;;;;;;17.27;14.43;;;;;;;;;;10312377;28;20472;-66
2023/02/16 02:14:02;;;;;;;18.30;14.40;;;;;;;;;;10312767;28;20079;-66
2023/02/16 02:19:01;;;;;;;18.55;14.13;;;;;;;;;;10318000;28;20072;-66
2023/02/16 02:24:09;;;;;;;24.38;16.00;;;;;;;;;;10314764;28;20048;-67
2023/02/16 02:29:17;;;;;;;29.42;24.50;;;;;;;;;;10330774;28;20068;-67
2023/02/16 02:34:19;;;;;;;21.30;15.27;;;;;;;;;;10331161;28;20048;-66
2023/02/16 02:39:21;;;;;;;22.38;17.77;;;;;;;;;;10312622;28;20044;-67
2023/02/16 02:44:22;;;;;;;21.77;17.45;;;;;;;;;;10323423;28;20076;-66
2023/02/16 02:49:20;;;;;;;21.42;17.60;;;;;;;;;;10316190;28;20094;-66
2023/02/16 03:04:59;;;;;;;20.83;16.17;;;;;;;;;;10314049;28;20095;-67
2023/02/16 03:12:43;;;;;;;21.17;15.68;;;;;;;;;;10318574;28;20079;-67
2023/02/16 03:15:19;;;;;;;20.88;16.55;;;;;;;;;;10332273;28;20071;-67
2023/02/16 03:30:52;;;;;;;20.48;15.18;;;;;;;;;;10331853;28;20068;-66
2023/02/16 03:35:51;;;;;;;20.02;16.83;;;;;;;;;;10330957;28;20064;-67
2023/02/16 03:40:49;;;;;;;23.13;17.52;;;;;;;;;;10332244;28;20068;-66
2023/02/16 03:45:48;;;;;;;22.27;17.48;;;;;;;;;;10330739;28;20068;-67
2023/02/16 03:50:47;;;;;;;24.77;18.10;;;;;;;;;;10330281;28;20528;-67
2023/02/16 03:55:46;;;;;;;21.83;17.67;;;;;;;;;;10331120;28;20099;-67
2023/02/16 04:00:44;;;;;;;25.67;18.75;;;;;;;;;;10310852;28;20047;-66
2023/02/16 04:05:43;;;;;;;27.35;18.95;;;;;;;;;;10329459;28;20079;-67
2023/02/16 04:10:42;;;;;;;33.15;21.20;;;;;;;;;;10328949;28;20528;-66
2023/02/16 04:15:41;;;;;;;21.60;17.75;;;;;;;;;;10328721;28;20071;-66
2023/02/16 04:20:39;;;;;;;23.30;19.38;;;;;;;;;;10329126;28;20068;-67
2023/02/16 04:25:37;;;;;;;29.77;20.80;;;;;;;;;;10325836;28;20071;-66
2023/02/16 04:30:36;;;;;;;22.42;17.58;;;;;;;;;;10328598;28;20067;-66
2023/02/16 04:35:35;;;;;;;26.92;18.60;;;;;;;;;;10327599;28;20072;-66
2023/02/16 04:40:33;;;;;;;89.03;50.85;;;;;;;;;;10326960;28;20075;-67
2023/02/16 04:45:31;;;;;;;41.83;29.20;;;;;;;;;;10329283;28;20072;-66
2023/02/16 04:50:31;;;;;;;40.80;27.95;;;;;;;;;;10329228;28;20075;-66
2023/02/16 04:55:29;;;;;;;32.42;24.55;;;;;;;;;;10328558;28;20072;-66
2023/02/16 05:00:28;;;;;;;39.05;26.33;;;;;;;;;;10322595;28;20071;-65
2023/02/16 05:05:26;;;;;;;49.40;33.17;;;;;;;;;;10287384;28;1125165;-66
2023/02/16 05:10:25;;;;;;;36.33;26.58;;;;;;;;;;10331720;28;20102;-68
2023/02/16 05:15:24;;;;;;;47.22;34.17;;;;;;;;;;10330538;28;20060;-66
2023/02/16 05:21:28;;;;;;;26.17;19.98;;;;;;;;;;10331492;28;20083;-66
2023/02/16 05:25:42;;;;;;;24.30;18.17;;;;;;;;;;10328156;28;20493;-66
2023/02/16 05:30:41;;;;;;;23.25;19.00;;;;;;;;;;10328416;28;20516;-66
2023/02/16 05:35:39;;;;;;;24.45;17.88;;;;;;;;;;10338568;28;20074;-66
2023/02/16 05:40:37;;;;;;;22.33;18.60;;;;;;;;;;10349668;28;20079;-66
2023/02/16 05:45:38;;;;;;;26.30;19.90;;;;;;;;;;10344882;28;20059;-65
2023/02/16 05:50:36;;;;;;;25.65;18.65;;;;;;;;;;10337374;28;20071;-65
2023/02/16 05:55:35;;;;;;;22.00;17.33;;;;;;;;;;10332255;28;20063;-67
2023/02/16 06:00:34;;;;;;;25.90;18.85;;;;;;;;;;10353542;28;20102;-66
2023/02/16 06:05:34;;;;;;;23.17;17.40;;;;;;;;;;10345319;28;20079;-67
2023/02/16 06:10:32;;;;;;;24.60;19.00;;;;;;;;;;10334670;28;20075;-67
2023/02/16 06:15:30;;;;;;;25.88;18.25;;;;;;;;;;10336475;28;20067;-67
2023/02/16 06:20:28;;;;;;;23.27;19.33;;;;;;;;;;10334741;28;20060;-66
2023/02/16 06:25:28;;;;;;;27.80;20.80;;;;;;;;;;10337397;28;20067;-67
2023/02/16 06:30:26;;;;;;;26.80;19.55;;;;;;;;;;10335343;28;20072;-67
2023/02/16 06:35:24;;;;;;;25.08;19.60;;;;;;;;;;10340180;28;20489;-67
2023/02/16 06:40:24;;;;;;;24.10;19.90;;;;;;;;;;10333959;28;20083;-67
2023/02/16 06:45:23;;;;;;;26.67;21.60;;;;;;;;;;10332010;28;20074;-66
2023/02/16 06:50:21;;;;;;;26.92;19.92;;;;;;;;;;10332820;28;20064;-67
2023/02/16 06:55:20;;;;;;;27.50;21.73;;;;;;;;;;10336063;28;20088;-66
2023/02/16 07:00:18;;;;;;;28.35;21.80;;;;;;;;;;10334123;28;20076;-66
2023/02/16 07:05:18;;;;;;;32.05;23.25;;;;;;;;;;10331800;28;20072;-67
2023/02/16 07:10:16;;;;;;;31.40;25.05;;;;;;;;;;10339478;28;20068;-67
2023/02/16 07:15:14;;;;;;;41.53;32.90;;;;;;;;;;10326153;28;20094;-67
2023/02/16 07:20:13;;;;;;;31.58;24.88;;;;;;;;;;10336506;28;20774;-66
2023/02/16 07:25:12;;;;;;;40.75;31.42;;;;;;;;;;10332533;28;20071;-67
2023/02/16 07:30:11;;;;;;;36.92;28.88;;;;;;;;;;10334452;28;20072;-66
2023/02/16 07:35:10;;;;;;;34.80;27.38;;;;;;;;;;10321878;28;20076;-66
2023/02/16 07:40:08;;;;;;;33.85;24.02;;;;;;;;;;10323612;28;20776;-67
2023/02/16 07:45:08;;;;;;;31.60;22.05;;;;;;;;;;10331235;28;20078;-66
2023/02/16 07:50:07;;;;;;;30.33;23.10;;;;;;;;;;10317074;28;20072;-65
2023/02/16 07:55:06;;;;;;;31.92;26.13;;;;;;;;;;10317477;28;20056;-66
2023/02/16 08:00:06;;;;;;;35.08;27.20;;;;;;;;;;10326568;28;20079;-65
2023/02/16 08:05:12;;;;;;;31.70;24.50;;;;;;;;;;10325970;28;20080;-65
2023/02/16 08:10:11;;;;;;;35.22;25.83;;;;;;;;;;10321982;28;20071;-66
2023/02/16 08:15:10;;;;;;;44.85;32.35;;;;;;;;;;10332170;28;20068;-66
2023/02/16 08:20:09;;;;;;;73.68;41.83;;;;;;;;;;10327851;28;20064;-66
2023/02/16 08:25:10;;;;;;;80.50;45.63;;;;;;;;;;10326292;28;20083;-67
2023/02/16 08:30:11;;;;;;;104.55;54.22;;;;;;;;;;10325401;28;20486;-67
2023/02/16 08:35:10;;;;;;;68.18;42.55;;;;;;;;;;10326186;28;20076;-67
2023/02/16 08:40:10;;;;;;;63.47;42.72;;;;;;;;;;10329255;28;20072;-67
2023/02/16 08:45:08;;;;;;;47.38;29.27;;;;;;;;;;10327128;28;20098;-66
2023/02/16 08:50:07;;;;;;;46.17;31.55;;;;;;;;;;10328769;28;20473;-67
2023/02/16 08:55:05;;;;;;;34.97;26.35;;;;;;;;;;10325832;28;20592;-67
2023/02/16 09:05:21;;;;;;;38.97;31.77;;;;;;;;;;10330286;28;20178;-66
2023/02/16 09:10:20;;;;;;;35.08;26.00;;;;;;;;;;10328589;28;20079;-67
2023/02/16 09:15:21;;;;;;;34.30;27.23;;;;;;;;;;10330829;28;20458;-67
2023/02/16 09:20:20;;;;;;;38.92;30.10;;;;;;;;;;10335338;28;20072;-67
2023/02/16 09:25:18;;;;;;;33.10;28.52;;;;;;;;;;10335351;28;20104;-68
2023/02/16 09:30:17;;;;;;;33.33;25.80;;;;;;;;;;10335080;28;20076;-65
2023/02/16 09:35:17;;;;;;;36.60;29.23;;;;;;;;;;10337719;28;20078;-67
2023/02/16 09:40:15;;;;;;;31.92;25.05;;;;;;;;;;10332638;28;20469;-67
2023/02/16 09:45:14;;;;;;;35.08;27.95;;;;;;;;;;10332185;28;20509;-67
2023/02/16 09:50:15;;;;;;;30.05;24.75;;;;;;;;;;10331600;28;20077;-67
2023/02/16 09:55:17;;;;;;;31.10;25.40;;;;;;;;;;10331874;28;20446;-67
2023/02/16 10:00:22;;;;;;;32.00;25.52;;;;;;;;;;10328662;28;20067;-66
2023/02/16 10:05:20;;;;;;;;;;;;;;;;;;10333831;28;20083;-67
2023/02/16 10:10:22;;;;;;;36.85;30.25;;;;;;;;;;10326166;28;19973;-65
2023/02/16 10:15:22;;;;;;;36.17;28.85;;;;;;;;;;10321878;28;20063;-65
2023/02/16 10:20:23;;;;;;;33.83;27.77;;;;;;;;;;10315390;28;20532;-66
2023/02/16 10:25:25;;;;;;;41.35;30.52;;;;;;;;;;10314247;28;20076;-65
2023/02/16 10:30:23;;;;;;;33.92;28.90;;;;;;;;;;10325929;28;20517;-65
2023/02/16 10:35:26;;;;;;;39.38;31.45;;;;;;;;;;10317675;28;20079;-66
2023/02/16 10:40:33;;;;;;;34.08;27.27;;;;;;;;;;10296854;28;20080;-66
2023/02/16 10:45:33;;;;;;;160.32;80.85;;;;;;;;;;10312131;28;20490;-66
2023/02/16 10:50:33;;;;;;;51.45;33.33;;;;;;;;;;10314384;28;20362;-66
2023/02/16 10:55:32;;;;;;;32.72;25.15;;;;;;;;;;10312628;28;20066;-66
2023/02/16 11:00:48;;;;;;;43.67;32.15;;;;;;;;;;10313713;28;20474;-67
2023/02/16 11:05:47;;;;;;;41.28;31.63;;;;;;;;;;10324441;28;20600;-67
2023/02/16 11:10:49;;;;;;;52.47;39.97;;;;;;;;;;10297346;28;20112;-67
2023/02/16 11:15:51;;;;;;;29.52;24.98;;;;;;;;;;10323461;28;20064;-67
2023/02/16 11:20:53;;;;;;;34.13;27.63;;;;;;;;;;10320714;28;20079;-67
2023/02/16 11:25:57;;;;;;;29.35;25.33;;;;;;;;;;10315101;28;20079;-68
2023/02/16 11:31:00;;;;;;;38.70;29.83;;;;;;;;;;10334048;28;20079;-68
2023/02/16 11:36:01;;;;;;;34.53;26.70;;;;;;;;;;10331013;28;20541;-68
2023/02/16 11:41:02;;;;;;;37.45;30.35;;;;;;;;;;10329596;28;20075;-67
2023/02/16 11:46:01;;;;;;;32.90;27.65;;;;;;;;;;10330610;28;20100;-68
2023/02/16 11:51:01;;;;;;;31.92;25.45;;;;;;;;;;10331682;28;20072;-68
2023/02/16 11:56:21;;;;;;;29.85;23.95;;;;;;;;;;10307024;28;20045;-67
2023/02/16 12:01:22;;;;;;;30.27;25.25;;;;;;;;;;10329881;28;20528;-67
2023/02/16 12:06:30;;;;;;;31.70;25.70;;;;;;;;;;10331334;28;20087;-67
2023/02/16 12:11:37;;;;;;;32.22;24.77;;;;;;;;;;10329377;28;20103;-67
2023/02/16 12:16:39;;;;;;;32.75;23.70;;;;;;;;;;10330789;28;20146;-67
2023/02/16 12:21:41;;;;;;;38.17;33.67;;;;;;;;;;10328360;28;20521;-67
2023/02/16 12:26:45;;;;;;;26.77;22.65;;;;;;;;;;10327179;28;20091;-66
2023/02/16 12:31:50;;;;;;;29.00;22.58;;;;;;;;;;10327900;28;20075;-67
2023/02/16 12:36:53;;;;;;;35.35;28.25;;;;;;;;;;10332545;28;20072;-67
2023/02/16 12:41:58;;;;;;;116.60;69.18;;;;;;;;;;10330166;28;20063;-67
2023/02/16 12:46:59;;;;;;;29.13;24.20;;;;;;;;;;10330670;28;20083;-67
2023/02/16 12:52:00;;;;;;;36.65;25.25;;;;;;;;;;10338331;28;20072;-65
2023/02/16 12:57:02;;;;;;;28.45;23.23;;;;;;;;;;10338068;28;20068;-66
2023/02/16 13:02:01;;;;;;;30.15;24.67;;;;;;;;;;10335713;28;20083;-67
2023/02/16 13:07:05;;;;;;;28.15;22.05;;;;;;;;;;10336412;28;20064;-67
2023/02/16 13:12:10;;;;;;;30.30;25.80;;;;;;;;;;10335292;28;20080;-67
2023/02/16 13:17:11;;;;;;;25.27;21.10;;;;;;;;;;10337928;28;20064;-66
2023/02/16 13:22:29;;;;;;;28.10;22.85;;;;;;;;;;10337480;28;20087;-66
2023/02/16 13:27:34;;;;;;;25.67;22.30;;;;;;;;;;10331207;28;20080;-66
2023/02/16 13:32:59;;;;;;;26.30;20.88;;;;;;;;;;10337848;28;20474;-67
2023/02/16 13:38:01;;;;;;;36.13;26.05;;;;;;;;;;10333910;28;20068;-67
2023/02/16 13:43:20;;;;;;;26.15;21.98;;;;;;;;;;10336490;28;20067;-67
2023/02/16 13:48:23;;;;;;;31.63;22.83;;;;;;;;;;10331588;28;20076;-67
2023/02/16 13:53:22;;;;;;;29.25;23.55;;;;;;;;;;10330958;28;20068;-66
2023/02/16 13:58:27;;;;;;;27.95;21.55;;;;;;;;;;10335614;28;20068;-67
2023/02/16 14:03:38;;;;;;;30.27;25.83;;;;;;;;;;10335589;28;20087;-67
2023/02/16 14:08:36;;;;;;;33.75;25.88;;;;;;;;;;10335321;28;20076;-66
2023/02/16 14:13:44;;;;;;;26.48;22.83;;;;;;;;;;10335411;28;20491;-66
2023/02/16 14:18:44;;;;;;;40.13;33.30;;;;;;;;;;10335197;28;20080;-67
2023/02/16 14:23:42;;;;;;;29.63;23.30;;;;;;;;;;10335433;28;20083;-67
2023/02/16 14:28:56;;;;;;;30.00;24.75;;;;;;;;;;10336074;28;20494;-67
2023/02/16 14:34:00;;;;;;;33.92;25.08;;;;;;;;;;10335807;28;20082;-68
2023/02/16 14:38:58;;;;;;;41.80;33.35;;;;;;;;;;10335323;28;20067;-67
2023/02/16 14:44:11;;;;;;;27.60;22.60;;;;;;;;;;10333091;28;20078;-67
2023/02/16 14:49:33;;;;;;;31.77;24.42;;;;;;;;;;10334530;28;20474;-67
2023/02/16 14:54:46;;;;;;;26.77;22.52;;;;;;;;;;10333043;28;20509;-67
2023/02/16 14:59:50;;;;;;;33.17;25.65;;;;;;;;;;10321334;28;20083;-68
2023/02/16 15:04:48;;;;;;;36.00;27.30;;;;;;;;;;10331841;28;20528;-68
2023/02/16 15:09:46;;;;;;;34.97;28.00;;;;;;;;;;10329331;28;20064;-68
2023/02/16 15:14:46;;;;;;;48.80;38.55;;;;;;;;;;10332531;28;20477;-68
2023/02/16 15:19:47;;;;;;;77.15;52.78;;;;;;;;;;10329990;28;20102;-68
2023/02/16 15:24:54;;;;;;;61.22;44.13;;;;;;;;;;10333129;28;20044;-68
2023/02/16 15:30:02;;;;;;;107.13;81.18;;;;;;;;;;10332119;28;20084;-68
2023/02/16 15:35:12;;;;;;;130.27;87.80;;;;;;;;;;10327436;28;20075;-68
2023/02/16 15:40:14;;;;;;;112.43;79.82;;;;;;;;;;10334502;28;20075;-68
2023/02/16 15:45:29;;;;;;;175.95;118.00;;;;;;;;;;10331921;28;20501;-68
2023/02/16 15:50:29;;;;;;;237.82;153.18;;;;;;;;;;10329603;28;20514;-68
2023/02/16 15:55:27;;;;;;;203.48;130.57;;;;;;;;;;10348726;28;20076;-68
2023/02/16 16:00:27;;;;;;;167.82;127.90;;;;;;;;;;10333894;28;20083;-67
2023/02/16 16:05:26;;;;;;;89.30;71.32;;;;;;;;;;10335511;28;20083;-68
2023/02/16 16:10:28;;;;;;;93.03;70.63;;;;;;;;;;10338391;28;20068;-67
2023/02/16 16:15:26;;;;;;;84.53;64.57;;;;;;;;;;10336187;28;20540;-66
2023/02/16 16:20:27;;;;;;;165.85;106.70;;;;;;;;;;10329498;28;20091;-65
2023/02/16 16:25:31;;;;;;;221.93;138.35;;;;;;;;;;10339691;28;20063;-65
2023/02/16 16:30:30;;;;;;;218.33;135.23;;;;;;;;;;10343728;28;20521;-65
2023/02/16 16:35:39;;;;;;;123.22;81.97;;;;;;;;;;10342617;28;20516;-65
2023/02/16 16:40:39;;;;;;;123.43;81.20;;;;;;;;;;10338446;28;20671;-65
2023/02/16 16:45:38;;;;;;;152.93;97.47;;;;;;;;;;10336430;28;20094;-66
2023/02/16 16:50:37;;;;;;;310.50;168.52;;;;;;;;;;10333535;28;20902;-66
2023/02/16 16:55:38;;;;;;;183.50;103.50;;;;;;;;;;10338229;28;20071;-66
2023/02/16 17:00:38;;;;;;;408.75;218.88;;;;;;;;;;10330478;28;20063;-66
2023/02/16 17:05:38;;;;;;;452.58;214.35;;;;;;;;;;10330309;28;20075;-66
2023/02/16 17:10:40;;;;;;;582.63;300.90;;;;;;;;;;10330035;28;20146;-66
2023/02/16 17:15:42;;;;;;;417.77;215.02;;;;;;;;;;10337164;28;20572;-67
2023/02/16 17:20:40;;;;;;;359.88;190.85;;;;;;;;;;10337394;28;21200;-67
2023/02/16 17:25:40;;;;;;;460.70;262.42;;;;;;;;;;10336204;28;20458;-67
2023/02/16 17:30:38;;;;;;;352.05;199.18;;;;;;;;;;10337514;28;20075;-66
2023/02/16 17:35:37;;;;;;;362.30;210.35;;;;;;;;;;10336874;28;20081;-66
2023/02/16 17:40:35;;;;;;;337.25;200.93;;;;;;;;;;10334637;28;20063;-66
2023/02/16 17:45:35;;;;;;;210.52;135.07;;;;;;;;;;10336586;28;20063;-67
2023/02/16 17:50:33;;;;;;;251.30;166.40;;;;;;;;;;10345059;28;20064;-66
2023/02/16 17:55:31;;;;;;;239.88;158.35;;;;;;;;;;10340219;28;20067;-66
2023/02/16 18:00:30;;;;;;;285.48;186.63;;;;;;;;;;10341568;28;20516;-66
2023/02/16 18:05:29;;;;;;;236.10;154.85;;;;;;;;;;10332559;28;20095;-67
2023/02/16 18:10:32;;;;;;;154.07;104.85;;;;;;;;;;10339887;28;20079;-65
2023/02/16 18:15:30;;;;;;;154.60;104.53;;;;;;;;;;10341888;28;20083;-66
2023/02/16 18:20:30;;;;;;;97.80;71.43;;;;;;;;;;10336534;28;20076;-67
2023/02/16 18:25:28;;;;;;;77.13;53.88;;;;;;;;;;10332606;28;20513;-67
2023/02/16 18:30:26;;;;;;;88.82;65.68;;;;;;;;;;10337532;28;20060;-66
2023/02/16 18:35:24;;;;;;;122.45;84.38;;;;;;;;;;10333768;28;20064;-66
2023/02/16 18:40:24;;;;;;;158.52;104.63;;;;;;;;;;10342003;28;20071;-66
2023/02/16 18:45:22;;;;;;;122.65;83.82;;;;;;;;;;10320612;28;20080;-66
2023/02/16 18:50:20;;;;;;;101.53;71.82;;;;;;;;;;10339561;28;20072;-66
2023/02/16 18:55:18;;;;;;;97.10;68.70;;;;;;;;;;10343767;28;20555;-66
2023/02/16 19:00:20;;;;;;;92.18;68.80;;;;;;;;;;10337970;28;20063;-66
2023/02/16 19:05:18;;;;;;;126.90;88.40;;;;;;;;;;10340888;28;20521;-66
2023/02/16 19:10:17;;;;;;;142.88;94.82;;;;;;;;;;10337175;28;20063;-66
2023/02/16 19:15:15;;;;;;;196.02;123.85;;;;;;;;;;10335885;28;20106;-66
2023/02/16 19:20:17;;;;;;;58.80;45.92;;;;;;;;;;10339106;28;20483;-65
2023/02/16 19:25:15;;;;;;;55.45;43.40;;;;;;;;;;10346568;28;20083;-66
2023/02/16 19:30:13;;;;;;;89.18;63.67;;;;;;;;;;10340681;28;20071;-67
2023/02/16 19:35:15;;;;;;;106.22;75.47;;;;;;;;;;10335224;28;20072;-66
2023/02/16 19:40:14;;;;;;;91.22;65.25;;;;;;;;;;10338753;28;20074;-66
2023/02/16 19:45:12;;;;;;;95.15;63.28;;;;;;;;;;10337811;28;20505;-65
2023/02/16 19:50:11;;;;;;;71.25;53.10;;;;;;;;;;10329694;28;20071;-64
2023/02/16 19:55:10;;;;;;;66.72;50.80;;;;;;;;;;10327840;28;20074;-65
2023/02/16 20:00:12;;;;;;;82.30;59.65;;;;;;;;;;10321592;28;20068;-64
2023/02/16 20:05:11;;;;;;;59.33;49.13;;;;;;;;;;10324905;28;20076;-65
2023/02/16 20:10:11;;;;;;;47.63;32.95;;;;;;;;;;10338864;28;20083;-65
2023/02/16 20:15:12;;;;;;;74.72;49.55;;;;;;;;;;10333776;28;20080;-65
2023/02/16 20:20:11;;;;;;;38.42;28.45;;;;;;;;;;10329379;28;20075;-64
2023/02/16 20:25:10;;;;;;;56.47;39.92;;;;;;;;;;10335312;28;20127;-65
2023/02/16 20:30:11;;;;;;;54.20;35.03;;;;;;;;;;10332360;28;20071;-65
2023/02/16 20:35:09;;;;;;;28.67;23.58;;;;;;;;;;10316944;28;20080;-65
2023/02/16 20:40:08;;;;;;;88.57;56.08;;;;;;;;;;10330106;28;20064;-65
2023/02/16 20:45:07;;;;;;;31.02;25.13;;;;;;;;;;10331372;28;20082;-66
2023/02/16 20:50:06;;;;;;;35.92;28.52;;;;;;;;;;10333913;28;20098;-66
2023/02/16 20:55:04;;;;;;;37.42;29.48;;;;;;;;;;10331281;28;20076;-65
2023/02/16 21:00:04;;;;;;;55.28;40.90;;;;;;;;;;10330203;28;20099;-65
2023/02/16 21:05:06;;;;;;;33.15;25.33;;;;;;;;;;10331397;28;20084;-65
2023/02/16 21:10:13;;;;;;;34.88;27.80;;;;;;;;;;10336278;28;20074;-64
2023/02/16 21:15:11;;;;;;;35.03;27.10;;;;;;;;;;10330353;28;20473;-66
2023/02/16 21:20:11;;;;;;;43.83;31.17;;;;;;;;;;10335314;28;20079;-65
2023/02/16 21:25:09;;;;;;;34.47;27.88;;;;;;;;;;10331933;28;20080;-66
2023/02/16 21:30:11;;;;;;;31.73;24.85;;;;;;;;;;10335456;28;20483;-65
2023/02/16 21:35:10;;;;;;;27.88;23.25;;;;;;;;;;10335281;28;20090;-65
2023/02/16 21:45:27;;;;;;;38.78;26.67;;;;;;;;;;10338336;28;20071;-64
2023/02/16 21:50:26;;;;;;;28.92;22.02;;;;;;;;;;10334648;28;20060;-65
2023/02/16 22:00:40;;;;;;;29.13;22.55;;;;;;;;;;10332112;28;20059;-65
2023/02/16 22:05:40;;;;;;;28.30;21.48;;;;;;;;;;10336094;28;20071;-66
2023/02/16 22:10:38;;;;;;;25.92;20.90;;;;;;;;;;10334358;28;20476;-65
2023/02/16 22:15:36;;;;;;;27.60;21.73;;;;;;;;;;10334991;28;20088;-66
2023/02/16 22:20:34;;;;;;;28.20;21.98;;;;;;;;;;10334590;28;20520;-65
2023/02/16 22:25:38;;;;;;;30.00;22.77;;;;;;;;;;10334180;28;20082;-66
2023/02/16 22:30:36;;;;;;;26.98;22.52;;;;;;;;;;10333977;28;20076;-66
2023/02/16 22:35:34;;;;;;;38.70;30.58;;;;;;;;;;10333169;28;20090;-66
2023/02/16 22:40:32;;;;;;;33.35;24.83;;;;;;;;;;10336188;28;20067;-65
2023/02/16 22:45:33;;;;;;;33.28;25.77;;;;;;;;;;10341895;28;20064;-65
2023/02/16 22:50:31;;;;;;;27.02;22.75;;;;;;;;;;10334147;28;20071;-66
2023/02/16 22:55:29;;;;;;;27.80;22.63;;;;;;;;;;10330652;28;20071;-65
2023/02/16 23:00:28;;;;;;;29.80;22.58;;;;;;;;;;10329212;28;20064;-64
2023/02/16 23:05:29;;;;;;;28.65;24.23;;;;;;;;;;10327841;28;20099;-65
2023/02/16 23:10:27;;;;;;;30.17;23.45;;;;;;;;;;10328661;28;20060;-66
2023/02/16 23:15:25;;;;;;;32.78;22.08;;;;;;;;;;10331149;28;20084;-64
2023/02/16 23:20:23;;;;;;;31.17;24.23;;;;;;;;;;10332443;28;20472;-65
2023/02/16 23:25:32;;;;;;;27.88;21.45;;;;;;;;;;10332952;28;20076;-64
2023/02/16 23:30:30;;;;;;;27.30;22.73;;;;;;;;;;10330682;28;20458;-66
2023/02/16 23:35:29;;;;;;;29.40;23.52;;;;;;;;;;10332613;28;20078;-65
2023/02/16 23:40:28;;;;;;;33.55;26.17;;;;;;;;;;10331301;28;20076;-66
2023/02/16 23:45:26;;;;;;;31.38;23.20;;;;;;;;;;10331617;28;20579;-66
2023/02/16 23:50:25;;;;;;;26.77;21.85;;;;;;;;;;10333270;28;20076;-65
2023/02/16 23:55:23;;;;;;;33.42;23.17;;;;;;;;;;10331423;28;20086;-65
